Time;durP1;ratioP1;P1;durP2;ratioP2;P2;SDS_P1;SDS_P2;PMS_P1;PMS_P2;Temp;Humidity;BMP_temperature;BMP_pressure;BME280_temperature;BME280_humidity;BME280_pressure;Samples;Min_cycle;Max_cycle;Signal;HPM_P1;HPM_P2
2022/01/01 00:01:44;;;;;;;19.88;9.80;;;3.50;99.90;;;3.92;100.00;97921.44;5003250;28;121582;-74
2022/01/01 00:04:14;;;;;;;31.05;12.52;;;3.60;99.90;;;3.87;100.00;97924.28;4981305;28;121719;-74
2022/01/01 00:06:43;;;;;;;33.65;13.15;;;3.50;99.90;;;3.85;100.00;97915.75;5016177;28;131503;-75
2022/01/01 00:09:12;;;;;;;24.65;11.32;;;3.50;99.90;;;3.85;100.00;97921.09;5006689;28;131303;-75
2022/01/01 00:11:41;;;;;;;20.95;9.27;;;3.40;99.90;;;3.89;100.00;97927.44;5007143;28;119359;-75
2022/01/01 00:14:09;;;;;;;24.73;9.18;;;3.50;99.90;;;3.86;100.00;97920.00;5004901;28;119273;-74
2022/01/01 00:16:48;;;;;;;15.82;7.55;;;3.50;99.90;;;3.72;100.00;97921.94;5003782;28;129792;-75
2022/01/01 00:19:17;;;;;;;18.23;7.88;;;3.60;99.90;;;3.75;100.00;97929.38;4987003;28;129715;-75
2022/01/01 00:21:45;;;;;;;16.05;7.72;;;3.50;99.90;;;3.74;100.00;97930.47;5000799;28;120094;-75
2022/01/01 00:24:14;;;;;;;21.65;7.93;;;3.50;99.90;;;3.66;100.00;97944.63;5000132;28;119417;-74
2022/01/01 00:26:42;;;;;;;17.02;7.32;;;3.60;99.90;;;3.65;100.00;97948.44;4978214;28;128792;-75
2022/01/01 00:29:11;;;;;;;17.92;7.45;;;3.60;99.90;;;3.68;100.00;97947.81;5001494;28;128617;-75
2022/01/01 00:31:40;;;;;;;18.42;7.75;;;3.60;99.90;;;3.72;100.00;97935.38;4987859;28;118792;-74
2022/01/01 00:34:09;;;;;;;26.77;9.25;;;3.60;99.90;;;3.72;100.00;97932.69;5003309;28;119923;-74
2022/01/01 00:36:39;;;;;;;19.77;8.25;;;3.50;99.90;;;3.71;100.00;97947.19;4986356;28;129421;-75
2022/01/01 00:39:07;;;;;;;13.60;6.47;;;3.40;99.90;;;3.70;100.00;97934.88;4999834;28;129311;-75
2022/01/01 00:41:36;;;;;;;20.50;7.72;;;3.50;99.90;;;3.70;100.00;97951.75;5003018;28;120381;-75
2022/01/01 00:44:05;;;;;;;21.48;7.25;;;3.50;99.90;;;3.71;100.00;97957.91;5002820;28;119375;-74
2022/01/01 00:46:34;;;;;;;15.52;6.35;;;3.50;99.90;;;3.74;100.00;97957.31;5001332;28;129978;-74
2022/01/01 00:49:03;;;;;;;18.63;6.55;;;3.60;99.90;;;3.73;100.00;97963.78;5001836;28;130795;-74
2022/01/01 00:51:34;;;;;;;14.77;6.13;;;3.60;99.90;;;3.74;100.00;97960.00;5002041;28;122177;-74
2022/01/01 00:54:02;;;;;;;18.58;6.60;;;3.60;99.90;;;3.73;100.00;97961.09;4972301;28;120707;-74
2022/01/01 00:56:31;;;;;;;14.85;6.50;;;3.60;99.90;;;3.68;100.00;97974.66;5004392;28;129828;-75
2022/01/01 00:59:00;;;;;;;18.90;7.40;;;3.60;99.90;;;3.72;100.00;97962.19;5003809;28;129942;-75
2022/01/01 01:01:29;;;;;;;18.45;6.88;;;3.60;99.90;;;3.69;100.00;97965.47;4996971;28;119439;-72
2022/01/01 01:03:57;;;;;;;18.05;6.10;;;3.50;99.90;;;3.64;100.00;97969.06;5004174;28;119411;-75
2022/01/01 01:06:26;;;;;;;24.33;7.82;;;3.50;99.90;;;3.60;100.00;97971.56;5002801;28;130828;-75
2022/01/01 01:08:58;;;;;;;23.38;7.22;;;3.50;99.90;;;3.69;100.00;97970.84;5003177;28;129756;-75
2022/01/01 01:11:28;;;;;;;23.85;6.40;;;3.50;99.90;;;3.63;100.00;97986.28;5004778;28;119360;-75
2022/01/01 01:13:59;;;;;;;23.25;7.03;;;3.50;99.90;;;3.58;100.00;97979.16;5005646;28;120415;-75
2022/01/01 01:16:29;;;;;;;16.77;6.45;;;3.50;99.90;;;3.64;100.00;97970.97;5001062;28;129714;-74
2022/01/01 01:18:57;;;;;;;29.65;7.63;;;3.50;99.90;;;3.57;100.00;97968.72;4988354;28;128691;-75
2022/01/01 01:21:28;;;;;;;14.93;6.50;;;3.40;99.90;;;3.59;100.00;97972.66;4988106;28;119610;-74
2022/01/01 01:24:00;;;;;;;23.05;8.05;;;3.40;99.90;;;3.60;100.00;97978.84;5005559;28;119474;-74
2022/01/01 01:26:29;;;;;;;21.20;7.20;;;3.40;99.90;;;3.57;100.00;97980.22;5002369;28;130756;-74
2022/01/01 01:28:58;;;;;;;12.52;5.97;;;3.50;99.90;;;3.56;100.00;97978.63;5003350;28;130073;-74
2022/01/01 01:31:28;;;;;;;19.00;7.03;;;3.50;99.90;;;3.59;100.00;97983.41;5003182;28;119350;-74
2022/01/01 01:33:57;;;;;;;22.35;7.32;;;3.40;99.90;;;3.55;100.00;97982.44;5005348;28;121098;-74
2022/01/01 01:36:26;;;;;;;16.15;7.07;;;3.40;99.90;;;3.59;100.00;97983.41;5002305;28;129434;-74
2022/01/01 01:38:54;;;;;;;13.38;6.18;;;3.40;99.90;;;3.56;100.00;97986.69;5002228;28;129643;-74
2022/01/01 01:41:29;;;;;;;19.00;7.10;;;3.40;99.90;;;3.56;100.00;97988.59;4996765;28;121723;-74
2022/01/01 01:43:58;;;;;;;13.43;6.00;;;3.40;99.90;;;3.52;100.00;97995.63;5003051;28;121887;-74
2022/01/01 01:46:27;;;;;;;15.55;6.95;;;3.40;99.90;;;3.46;100.00;98003.00;4992891;28;129436;-74
2022/01/01 01:48:56;;;;;;;12.20;5.82;;;3.40;99.90;;;3.45;100.00;97996.06;5001871;28;130528;-74
2022/01/01 01:51:25;;;;;;;13.50;6.00;;;3.40;99.90;;;3.34;100.00;98010.78;5005051;28;119658;-74
2022/01/01 01:53:54;;;;;;;13.70;5.57;;;3.40;99.90;;;3.37;100.00;98012.88;5002471;28;119496;-74
2022/01/01 01:56:24;;;;;;;12.38;5.57;;;3.30;99.90;;;3.36;100.00;98016.63;5002600;28;130277;-74
2022/01/01 01:58:53;;;;;;;13.68;5.53;;;3.40;99.90;;;3.35;100.00;98012.34;5002635;28;129813;-74
2022/01/01 02:01:25;;;;;;;12.45;5.82;;;3.30;99.90;;;3.37;100.00;98004.81;4987256;28;118479;-74
2022/01/01 02:03:56;;;;;;;9.95;5.10;;;3.30;99.90;;;3.39;100.00;98005.31;4989013;28;119196;-74
2022/01/01 02:06:26;;;;;;;11.20;5.13;;;3.30;99.90;;;3.41;100.00;98013.84;5001727;28;130824;-74
2022/01/01 02:08:55;;;;;;;10.95;4.90;;;3.30;99.90;;;3.37;100.00;98021.69;5003010;28;129554;-74
2022/01/01 02:11:28;;;;;;;12.07;5.60;;;3.30;99.90;;;3.37;100.00;98018.22;4986634;28;120561;-74
2022/01/01 02:14:15;;;;;;;12.05;6.07;;;3.30;99.90;;;3.37;100.00;98013.66;5003998;28;119443;-74
2022/01/01 02:19:43;;;;;;;12.57;5.38;;;3.30;99.90;;;3.35;100.00;98012.34;5002491;28;130299;-74
2022/01/01 02:22:14;;;;;;;12.98;5.57;;;3.20;99.90;;;3.42;100.00;98026.94;5002142;28;120629;-74
2022/01/01 02:24:43;;;;;;;12.90;5.47;;;3.20;99.90;;;3.39;100.00;98021.38;4995440;28;118804;-74
2022/01/01 02:27:12;;;;;;;10.80;4.68;;;3.20;99.90;;;3.43;100.00;98019.72;4986952;28;128956;-74
2022/01/01 02:29:40;;;;;;;8.35;4.05;;;3.30;99.90;;;3.43;100.00;98022.38;5001951;28;129671;-74
2022/01/01 02:32:12;;;;;;;8.63;4.07;;;3.20;99.90;;;3.42;100.00;98015.44;5001822;28;122185;-74
2022/01/01 02:34:41;;;;;;;11.13;4.53;;;3.20;99.90;;;3.51;100.00;98031.63;4995184;28;121695;-74
2022/01/01 02:37:12;;;;;;;8.98;4.20;;;3.20;99.90;;;3.52;100.00;98030.50;5004250;28;130679;-74
2022/01/01 02:39:41;;;;;;;8.48;4.13;;;3.20;99.90;;;3.46;100.00;98020.97;5001208;28;129564;-74
2022/01/01 02:42:12;;;;;;;7.32;3.58;;;3.20;99.90;;;3.45;100.00;98019.41;5002771;28;119948;-74
2022/01/01 02:44:43;;;;;;;6.80;3.63;;;3.20;99.90;;;3.48;100.00;98030.31;4987362;28;118483;-74
2022/01/01 02:47:12;;;;;;;7.45;4.07;;;3.20;99.90;;;3.42;100.00;98031.53;5001168;28;129690;-74
2022/01/01 02:49:41;;;;;;;7.22;3.42;;;3.10;99.90;;;3.40;100.00;98042.53;4987198;28;129149;-74
2022/01/01 02:52:12;;;;;;;6.32;3.25;;;3.20;99.90;;;3.39;100.00;98045.53;5001351;28;119368;-74
2022/01/01 02:54:41;;;;;;;5.75;3.15;;;3.20;99.90;;;3.38;100.00;98044.75;5003469;28;119458;-74
2022/01/01 02:57:10;;;;;;;6.57;3.10;;;3.10;99.90;;;3.37;100.00;98042.34;5000408;28;128911;-74
2022/01/01 02:59:38;;;;;;;7.03;3.08;;;3.10;99.90;;;3.38;100.00;98051.97;5001540;28;129542;-74
2022/01/01 03:02:06;;;;;;;7.50;3.38;;;3.10;99.90;;;3.37;100.00;98051.19;4987355;28;118392;-74
2022/01/01 03:04:35;;;;;;;6.22;2.80;;;3.10;99.90;;;3.34;100.00;98046.41;5001736;28;119190;-74
2022/01/01 03:07:04;;;;;;;7.20;2.80;;;3.20;99.90;;;3.39;100.00;98048.22;5002488;28;130409;-75
2022/01/01 03:09:35;;;;;;;6.00;2.78;;;3.10;99.90;;;3.33;100.00;98047.50;5002204;28;130313;-73
2022/01/01 03:12:06;;;;;;;5.00;2.33;;;3.10;99.90;;;3.32;100.00;98053.16;5003205;28;120213;-74
2022/01/01 03:14:35;;;;;;;5.70;2.40;;;3.10;99.90;;;3.28;100.00;98057.56;5004185;28;117783;-73
2022/01/01 03:17:04;;;;;;;6.95;2.53;;;3.10;99.90;;;3.34;100.00;98056.38;5001364;28;129606;-73
2022/01/01 03:19:33;;;;;;;7.45;2.88;;;3.20;99.90;;;3.28;100.00;98065.59;4994306;28;128551;-74
2022/01/01 03:22:06;;;;;;;6.65;3.03;;;3.20;99.90;;;3.32;100.00;98063.91;4986086;28;121048;-73
2022/01/01 03:24:36;;;;;;;6.07;2.80;;;3.20;99.90;;;3.28;100.00;98063.72;4986969;28;119437;-74
2022/01/01 03:27:05;;;;;;;6.65;3.10;;;3.20;99.90;;;3.25;100.00;98066.97;5003959;28;129872;-73
2022/01/01 03:29:34;;;;;;;7.20;2.88;;;3.10;99.90;;;3.24;100.00;98071.56;5002212;28;130468;-74
2022/01/01 03:32:03;;;;;;;6.20;3.20;;;3.10;99.90;;;3.26;100.00;98065.09;5000972;28;119340;-74
2022/01/01 03:34:31;;;;;;;8.30;3.38;;;3.10;99.90;;;3.26;100.00;98065.09;5001433;28;119719;-73
2022/01/01 03:37:01;;;;;;;8.93;3.80;;;3.20;99.90;;;3.28;100.00;98068.28;5002507;28;129804;-74
2022/01/01 03:39:30;;;;;;;7.80;3.80;;;3.20;99.90;;;3.27;100.00;98066.69;4999790;28;129694;-73
2022/01/01 03:42:01;;;;;;;11.88;4.57;;;3.20;99.90;;;3.20;100.00;98073.25;5003274;28;120156;-73
2022/01/01 03:44:29;;;;;;;10.70;5.10;;;3.20;99.90;;;3.23;100.00;98080.69;4999033;28;119681;-73
2022/01/01 03:47:07;;;;;;;11.68;5.53;;;3.20;99.90;;;3.26;100.00;98079.31;4997695;28;130009;-73
2022/01/01 03:49:36;;;;;;;15.82;6.00;;;3.10;99.90;;;3.19;100.00;98087.72;5001877;28;129693;-73
2022/01/01 03:52:06;;;;;;;13.15;6.20;;;3.20;99.90;;;3.20;100.00;98088.53;5002839;28;120037;-73
2022/01/01 03:54:34;;;;;;;16.50;6.90;;;3.20;99.90;;;3.18;100.00;98086.16;4999410;28;118953;-73
2022/01/01 03:57:05;;;;;;;14.45;6.50;;;3.20;99.90;;;3.28;100.00;98082.47;5000615;28;129749;-73
2022/01/01 03:59:33;;;;;;;18.30;7.22;;;3.10;99.90;;;3.27;100.00;98096.19;4999408;28;129525;-74
2022/01/01 04:02:03;;;;;;;16.35;7.40;;;3.20;99.90;;;3.31;100.00;98083.78;5001076;28;120188;-74
2022/01/01 04:04:32;;;;;;;20.60;7.85;;;3.20;99.90;;;3.30;100.00;98082.97;5000511;28;119689;-73
2022/01/01 04:07:04;;;;;;;23.63;8.85;;;3.20;99.90;;;3.31;100.00;98084.56;4991641;28;130206;-72
2022/01/01 04:09:32;;;;;;;22.27;8.60;;;3.20;99.90;;;3.30;100.00;98092.91;4999662;28;129561;-73
2022/01/01 04:12:03;;;;;;;18.73;8.60;;;3.20;99.90;;;3.28;100.00;98089.72;5002519;28;122514;-73
2022/01/01 04:14:32;;;;;;;28.77;10.98;;;3.20;99.90;;;3.23;100.00;98099.44;5005703;28;121439;-73
2022/01/01 04:17:00;;;;;;;23.50;9.35;;;3.20;99.90;;;3.23;100.00;98086.06;5005723;28;129884;-73
2022/01/01 04:19:39;;;;;;;23.48;10.00;;;3.20;99.90;;;3.12;100.00;98095.38;5002951;28;129958;-73
2022/01/01 04:22:09;;;;;;;21.08;10.00;;;3.20;99.90;;;3.20;100.00;98093.91;5004165;28;119398;-74
2022/01/01 04:24:38;;;;;;;29.65;10.73;;;3.20;99.90;;;3.22;100.00;98097.84;5004037;28;119375;-74
2022/01/01 04:27:09;;;;;;;32.35;11.63;;;3.20;99.90;;;3.21;100.00;98104.31;5006129;28;131177;-74
2022/01/01 04:29:39;;;;;;;30.05;12.25;;;3.20;99.90;;;3.29;100.00;98107.41;5003635;28;129293;-73
2022/01/01 04:32:09;;;;;;;25.92;11.38;;;3.20;99.90;;;3.31;100.00;98110.59;5006613;28;120071;-73
2022/01/01 04:34:37;;;;;;;27.75;11.82;;;3.20;99.90;;;3.22;100.00;98108.56;4989458;28;118217;-74
2022/01/01 04:37:11;;;;;;;35.30;12.20;;;3.20;99.90;;;3.22;100.00;98108.56;5002311;28;130751;-74
2022/01/01 04:39:42;;;;;;;32.72;12.05;;;3.20;99.90;;;3.28;100.00;98111.97;5003475;28;130744;-73
2022/01/01 04:42:12;;;;;;;22.27;10.57;;;3.20;99.90;;;3.23;100.00;98107.50;5003464;28;120546;-74
2022/01/01 04:44:41;;;;;;;29.95;13.45;;;3.20;99.90;;;3.32;100.00;98128.25;5021925;28;118235;-74
2022/01/01 04:47:10;;;;;;;24.63;10.82;;;3.20;99.90;;;3.26;100.00;98116.03;5003936;28;130652;-74
2022/01/01 04:49:38;;;;;;;25.25;9.82;;;3.20;99.90;;;3.26;100.00;98118.72;5003345;28;130046;-73
2022/01/01 04:52:08;;;;;;;26.33;11.27;;;3.20;99.90;;;3.29;100.00;98124.28;5005289;28;119565;-74
2022/01/01 04:54:40;;;;;;;31.17;12.27;;;3.20;99.90;;;3.30;100.00;98119.72;5005512;28;119576;-73
2022/01/01 04:57:09;;;;;;;22.33;10.73;;;3.20;99.90;;;3.26;100.00;98124.88;5002534;28;129968;-73
2022/01/01 04:59:40;;;;;;;26.13;10.60;;;3.10;99.90;;;3.22;100.00;98124.66;5002530;28;131212;-73
2022/01/01 05:02:09;;;;;;;28.65;10.38;;;3.10;99.90;;;3.28;100.00;98122.69;5020566;28;121549;-74
2022/01/01 05:04:38;;;;;;;20.27;9.77;;;3.20;99.90;;;3.29;100.00;98129.66;4988352;28;121619;-73
2022/01/01 05:07:07;;;;;;;24.20;10.05;;;3.20;99.90;;;3.29;100.00;98126.16;5003047;28;129785;-73
2022/01/01 05:09:35;;;;;;;18.25;8.93;;;3.20;99.90;;;3.32;100.00;98122.88;5002768;28;132176;-73
2022/01/01 05:12:05;;;;;;;18.20;8.35;;;3.20;99.90;;;3.32;100.00;98136.28;5003273;28;119656;-74
2022/01/01 05:14:34;;;;;;;19.10;8.70;;;3.20;99.90;;;3.26;100.00;98134.81;5022037;28;120109;-73
2022/01/01 05:17:05;;;;;;;21.50;8.63;;;3.20;99.90;;;3.25;100.00;98144.75;4987926;28;129010;-73
2022/01/01 05:19:34;;;;;;;14.27;7.80;;;3.20;99.90;;;3.17;100.00;98135.50;5005338;28;129772;-73
2022/01/01 05:22:03;;;;;;;19.75;9.02;;;3.20;99.90;;;3.26;100.00;98140.16;5002112;28;119461;-73
2022/01/01 05:24:31;;;;;;;15.15;7.65;;;3.10;99.90;;;3.19;100.00;98141.34;4988351;28;118881;-73
2022/01/01 05:27:00;;;;;;;17.15;7.55;;;3.10;99.90;;;3.20;100.00;98134.91;5001427;28;129856;-73
2022/01/01 05:29:29;;;;;;;16.60;7.15;;;3.10;99.90;;;3.24;100.00;98133.22;5003596;28;129685;-73
2022/01/01 05:31:57;;;;;;;14.32;7.22;;;3.10;99.90;;;3.32;100.00;98133.63;4995874;28;119241;-73
2022/01/01 05:34:27;;;;;;;15.25;7.07;;;3.10;99.90;;;3.30;100.00;98133.91;4987567;28;119475;-73
2022/01/01 05:36:56;;;;;;;14.82;6.78;;;3.20;99.90;;;3.35;100.00;98133.84;4987607;28;129320;-72
2022/01/01 05:39:25;;;;;;;15.27;6.85;;;3.10;99.90;;;3.30;100.00;98141.16;4986837;28;129090;-74
2022/01/01 05:41:54;;;;;;;12.13;6.22;;;3.10;99.90;;;3.32;100.00;98138.97;5002678;28;120077;-72
2022/01/01 05:44:24;;;;;;;11.25;5.60;;;3.10;99.90;;;3.37;100.00;98144.28;4990220;28;119556;-73
2022/01/01 05:46:53;;;;;;;13.90;6.60;;;3.20;99.90;;;3.32;100.00;98149.69;4962898;28;129886;-73
2022/01/01 05:49:22;;;;;;;11.48;5.35;;;3.20;99.90;;;3.35;100.00;98149.13;4964217;28;129398;-73
2022/01/01 05:51:52;;;;;;;13.63;6.05;;;3.20;99.90;;;3.37;100.00;98152.31;4963462;28;122645;-73
2022/01/01 05:54:20;;;;;;;11.68;5.93;;;3.20;99.90;;;3.29;100.00;98144.94;4980607;28;120697;-73
2022/01/01 05:56:49;;;;;;;12.50;5.55;;;3.20;99.90;;;3.39;100.00;98144.75;4962808;28;129755;-73
2022/01/01 05:59:18;;;;;;;11.38;5.75;;;3.20;99.90;;;3.35;100.00;98151.78;4964432;28;130319;-73
2022/01/01 06:01:47;;;;;;;11.48;5.30;;;3.20;99.90;;;3.35;100.00;98149.13;4965590;28;120400;-73
2022/01/01 06:04:15;;;;;;;11.45;5.10;;;3.20;99.90;;;3.30;100.00;98151.91;4962935;28;119442;-73
2022/01/01 06:06:44;;;;;;;10.55;4.95;;;3.20;99.90;;;3.28;100.00;98159.44;4962509;28;130094;-73
2022/01/01 06:09:14;;;;;;;9.30;4.63;;;3.20;99.90;;;3.31;100.00;98154.28;4964609;28;129722;-73
2022/01/01 06:11:42;;;;;;;9.57;4.20;;;3.20;99.90;;;3.38;100.00;98148.53;4962513;28;119682;-73
2022/01/01 06:14:11;;;;;;;9.80;4.53;;;3.20;99.90;;;3.41;100.00;98158.66;4964325;28;119574;-72
2022/01/01 06:16:42;;;;;;;10.73;4.95;;;3.20;99.90;;;3.39;100.00;98160.84;4962938;28;129003;-73
2022/01/01 06:19:11;;;;;;;9.40;4.97;;;3.20;99.90;;;3.45;100.00;98164.25;4961454;28;129467;-72
2022/01/01 06:21:39;;;;;;;10.50;4.68;;;3.20;99.90;;;3.37;100.00;98163.03;4962529;28;119338;-73
2022/01/01 06:24:08;;;;;;;8.55;4.35;;;3.20;99.90;;;3.47;100.00;98164.72;4965068;28;119230;-73
2022/01/01 06:26:38;;;;;;;8.32;4.22;;;3.20;99.90;;;3.47;100.00;98168.19;4963577;28;129079;-73
2022/01/01 06:29:07;;;;;;;8.05;4.18;;;3.30;99.90;;;3.51;100.00;98174.56;4961960;28;130117;-73
2022/01/01 06:31:36;;;;;;;6.97;3.40;;;3.30;99.90;;;3.58;100.00;98177.66;4962535;28;119619;-73
2022/01/01 06:34:04;;;;;;;7.85;3.83;;;3.30;99.90;;;3.56;100.00;98174.47;4947256;28;118714;-73
2022/01/01 06:36:36;;;;;;;8.15;3.88;;;3.30;99.90;;;3.55;100.00;98180.94;4962408;28;132436;-73
2022/01/01 06:39:05;;;;;;;6.72;3.47;;;3.30;99.90;;;3.58;100.00;98188.41;4961960;28;129781;-74
2022/01/01 06:41:33;;;;;;;6.68;3.00;;;3.30;99.90;;;3.59;100.00;98198.00;4963739;28;122040;-74
2022/01/01 06:44:03;;;;;;;7.15;3.22;;;3.30;99.90;;;3.49;100.00;98203.59;4962394;28;121656;-73
2022/01/01 06:46:32;;;;;;;6.25;2.92;;;3.30;99.90;;;3.54;100.00;98200.81;4963384;28;129565;-73
2022/01/01 06:49:01;;;;;;;6.38;3.47;;;3.40;99.90;;;3.49;100.00;98192.84;4963867;28;129850;-74
2022/01/01 06:51:32;;;;;;;7.20;3.15;;;3.40;99.90;;;3.51;100.00;98196.03;4964410;28;120564;-73
2022/01/01 06:54:00;;;;;;;6.63;3.50;;;3.30;99.90;;;3.50;100.00;98199.78;4961883;28;119696;-73
2022/01/01 06:56:29;;;;;;;6.70;3.38;;;3.40;99.90;;;3.48;100.00;98207.34;4960967;28;130300;-73
2022/01/01 06:58:57;;;;;;;6.93;3.15;;;3.40;99.90;;;3.49;100.00;98210.81;4961226;28;129879;-73
2022/01/01 07:01:27;;;;;;;7.82;3.80;;;3.30;99.90;;;3.53;100.00;98212.63;4977491;28;119305;-73
2022/01/01 07:03:58;;;;;;;10.48;3.85;;;3.30;99.90;;;3.48;100.00;98199.31;4963382;28;119822;-73
2022/01/01 07:06:27;;;;;;;7.95;3.90;;;3.30;99.90;;;3.38;100.00;98192.25;4960213;28;129920;-73
2022/01/01 07:08:55;;;;;;;8.90;3.75;;;3.30;99.90;;;3.38;100.00;98202.16;4991403;28;129794;-73
2022/01/01 07:11:24;;;;;;;8.18;4.00;;;3.40;99.90;;;3.46;100.00;98204.19;4962901;28;119179;-73
2022/01/01 07:13:55;;;;;;;8.35;4.05;;;3.40;99.90;;;3.44;100.00;98205.56;4963009;28;118618;-73
2022/01/01 07:16:24;;;;;;;9.32;4.15;;;3.40;99.90;;;3.47;100.00;98200.38;4959284;28;129761;-73
2022/01/01 07:18:54;;;;;;;8.02;3.95;;;3.40;99.90;;;3.52;100.00;98207.53;4960474;28;129790;-72
2022/01/01 07:21:22;;;;;;;8.45;4.18;;;3.30;99.90;;;3.46;100.00;98201.50;4960354;28;120300;-77
2022/01/01 07:23:51;;;;;;;7.53;3.78;;;3.30;99.90;;;3.46;100.00;98220.28;4961151;28;119479;-78
2022/01/01 07:26:20;;;;;;;8.52;3.60;;;3.30;99.90;;;3.46;100.00;98192.63;4962764;28;129738;-78
2022/01/01 07:28:48;;;;;;;8.82;3.97;;;3.30;99.90;;;3.52;100.00;98208.34;4964630;28;128834;-76
2022/01/01 07:31:18;;;;;;;6.70;3.42;;;3.30;99.90;;;3.48;100.00;98210.03;4960048;28;123218;-75
2022/01/01 07:33:47;;;;;;;7.57;3.72;;;3.40;99.90;;;3.54;100.00;98195.44;4997325;28;122211;-75
2022/01/01 07:36:17;;;;;;;6.80;3.72;;;3.40;99.90;;;3.60;100.00;98204.19;4962905;28;129861;-76
2022/01/01 07:38:46;;;;;;;7.07;3.35;;;3.40;99.90;;;3.60;100.00;98199.63;4965057;28;130186;-78
2022/01/01 07:41:15;;;;;;;7.63;3.38;;;3.40;99.90;;;3.67;100.00;98209.16;4998613;28;119191;-78
2022/01/01 07:43:43;;;;;;;7.10;3.13;;;3.40;99.90;;;3.73;100.00;98202.59;4963555;28;119586;-78
2022/01/01 07:46:12;;;;;;;8.05;3.28;;;3.40;99.90;;;3.84;100.00;98197.84;4926155;28;129650;-79
2022/01/01 07:48:40;;;;;;;6.18;3.13;;;3.40;99.90;;;3.85;100.00;98189.50;4927810;28;130223;-78
2022/01/01 07:51:09;;;;;;;5.80;3.10;;;3.40;99.90;;;3.95;100.00;98193.84;4929483;28;118643;-78
2022/01/01 07:53:39;;;;;;;6.63;2.92;;;3.50;99.90;;;3.91;100.00;98209.78;4929728;28;118849;-78
2022/01/01 07:56:08;;;;;;;6.40;2.90;;;3.50;99.90;;;3.90;100.00;98202.00;4960275;28;130063;-78
2022/01/01 07:58:37;;;;;;;6.85;3.25;;;3.50;99.90;;;3.93;100.00;98210.25;4927001;28;129857;-78
2022/01/01 08:01:05;;;;;;;5.10;2.75;;;3.50;99.90;;;3.91;100.00;98208.94;4961677;28;119010;-78
2022/01/01 08:03:34;;;;;;;5.75;2.80;;;3.50;99.90;;;3.89;100.00;98209.25;4945009;28;119044;-78
2022/01/01 08:06:02;;;;;;;5.85;3.03;;;3.50;99.90;;;3.99;100.00;98199.41;4926934;28;130296;-78
2022/01/01 08:08:33;;;;;;;5.78;2.70;;;3.50;99.90;;;4.01;100.00;98213.34;4926954;28;129520;-78
2022/01/01 08:11:03;;;;;;;4.97;2.40;;;3.50;99.90;;;4.02;100.00;98214.91;4912922;28;118569;-78
2022/01/01 08:13:35;;;;;;;4.32;2.20;;;3.50;99.90;;;4.17;100.00;98211.91;4922355;28;119304;-78
2022/01/01 08:16:05;;;;;;;4.95;2.30;;;3.60;99.90;;;4.29;100.00;98214.88;4928675;28;129493;-78
2022/01/01 08:18:34;;;;;;;4.20;2.10;;;3.60;99.90;;;4.34;100.00;98210.50;4929113;28;130109;-78
2022/01/01 08:21:02;;;;;;;4.25;1.83;;;3.70;99.90;;;4.35;100.00;98222.81;4928037;28;122434;-79
2022/01/01 08:23:31;;;;;;;3.40;1.90;;;3.70;99.90;;;4.41;100.00;98216.25;4927080;28;121750;-78
2022/01/01 08:26:00;;;;;;;2.13;1.40;;;3.70;99.90;;;4.39;100.00;98213.09;4926870;28;130780;-79
2022/01/01 08:28:35;;;;;;;2.88;1.70;;;3.80;99.90;;;4.32;100.00;98214.28;4928751;28;128819;-78
2022/01/01 08:31:04;;;;;;;2.40;1.40;;;3.80;99.90;;;4.43;100.00;98224.81;4928916;28;118627;-79
2022/01/01 08:33:32;;;;;;;3.25;1.60;;;3.80;99.90;;;4.32;100.00;98214.28;4928741;28;119433;-79
2022/01/01 08:36:03;;;;;;;2.63;1.50;;;3.70;99.90;;;4.32;100.00;98214.28;4925166;28;129702;-79
2022/01/01 08:38:32;;;;;;;2.83;1.48;;;3.70;99.90;;;4.34;100.00;98215.88;4927142;28;130254;-80
2022/01/01 08:41:01;;;;;;;2.78;1.50;;;3.80;99.90;;;4.27;100.00;98225.16;4926014;28;119726;-80
2022/01/01 08:43:32;;;;;;;2.35;1.40;;;3.70;99.90;;;4.36;100.00;98235.16;4928942;28;118258;-79
2022/01/01 08:46:01;;;;;;;2.50;1.33;;;3.80;99.90;;;4.39;100.00;98240.72;4963872;28;129981;-80
2022/01/01 08:48:29;;;;;;;2.38;1.20;;;3.80;99.90;;;4.20;100.00;98238.19;4959424;28;130109;-79
2022/01/01 08:51:14;;;;;;;2.67;1.50;;;3.80;99.90;;;4.17;100.00;98246.84;4965963;28;119506;-79
2022/01/01 08:53:42;;;;;;;3.03;1.63;;;3.80;99.90;;;4.13;100.00;98243.16;4965386;28;119780;-79
2022/01/01 08:56:12;;;;;;;3.25;1.60;;;3.80;99.90;;;4.18;100.00;98259.16;4965589;28;129723;-79
2022/01/01 08:58:42;;;;;;;2.78;1.60;;;3.80;99.90;;;4.25;100.00;98254.19;4966506;28;129300;-79
2022/01/01 09:01:12;;;;;;;2.88;1.80;;;3.90;99.90;;;4.24;100.00;98252.59;4966845;28;119052;-79
2022/01/01 09:03:41;;;;;;;4.10;1.75;;;3.80;99.90;;;4.21;100.00;98239.78;5001280;28;119008;-80
2022/01/01 09:06:11;;;;;;;3.33;1.70;;;3.80;99.90;;;4.26;100.00;98247.72;4983462;28;130667;-80
2022/01/01 09:08:42;;;;;;;3.13;1.60;;;3.80;99.90;;;4.32;100.00;98257.25;4965165;28;129544;-79
2022/01/01 09:11:14;;;;;;;3.35;1.77;;;3.80;99.90;;;4.23;100.00;98253.69;4964455;28;122011;-79
2022/01/01 09:14:06;;;;;;;3.15;1.80;;;3.80;99.90;;;4.23;100.00;98248.31;4965318;28;121915;-79
2022/01/01 09:16:34;;;;;;;4.30;1.77;;;3.80;99.90;;;4.31;100.00;98250.28;4965323;28;129936;-80
2022/01/01 09:19:03;;;;;;;2.85;1.70;;;3.80;99.90;;;4.36;100.00;98240.53;4965019;28;130148;-79
2022/01/01 09:21:32;;;;;;;3.15;1.52;;;3.80;99.90;;;4.28;100.00;98234.78;4965292;28;120037;-80
2022/01/01 09:24:01;;;;;;;3.60;1.63;;;3.80;99.90;;;4.32;100.00;98251.09;5000654;28;119602;-80
2022/01/01 09:26:30;;;;;;;2.85;1.77;;;3.90;99.90;;;4.44;100.00;98237.13;4966779;28;129081;-80
2022/01/01 09:28:58;;;;;;;3.63;1.50;;;3.90;99.90;;;4.37;100.00;98242.94;4965851;28;129814;-80
2022/01/01 09:31:28;;;;;;;3.65;1.85;;;3.80;99.90;;;4.41;100.00;98238.56;4965868;28;119541;-79
2022/01/01 09:33:57;;;;;;;3.05;1.85;;;3.80;99.90;;;4.40;100.00;98238.84;4965980;28;119288;-79
2022/01/01 09:36:27;;;;;;;3.53;1.83;;;4.00;99.90;;;4.44;100.00;98234.44;4963968;28;130563;-79
2022/01/01 09:38:55;;;;;;;2.53;1.50;;;3.90;99.90;;;4.48;100.00;98232.75;4965625;28;130218;-79
2022/01/01 09:41:24;;;;;;;3.15;1.58;;;3.80;99.90;;;4.56;100.00;98233.94;4965133;28;119706;-79
2022/01/01 09:43:55;;;;;;;2.42;1.20;;;3.90;99.90;;;4.66;100.00;98234.50;4964427;28;119018;-78
2022/01/01 09:46:25;;;;;;;2.45;1.40;;;3.90;99.90;;;4.67;100.00;98236.13;4947203;28;129768;-78
2022/01/01 09:48:56;;;;;;;2.53;1.50;;;3.90;99.90;;;4.71;100.00;98230.91;4932689;28;128962;-79
2022/01/01 09:51:28;;;;;;;2.72;1.40;;;4.00;99.90;;;4.49;100.00;98239.75;4959100;28;119733;-78
2022/01/01 09:53:56;;;;;;;2.25;1.30;;;3.90;99.90;;;4.45;100.00;98233.38;4960712;28;119700;-79
2022/01/01 09:56:25;;;;;;;3.10;1.40;;;3.90;99.90;;;4.48;100.00;98227.38;4944358;28;129866;-78
2022/01/01 09:58:56;;;;;;;2.28;1.40;;;3.90;99.90;;;4.38;100.00;98227.59;4978383;28;129691;-79
2022/01/01 10:01:25;;;;;;;2.20;1.30;;;3.80;99.90;;;4.61;100.00;98231.13;4962841;28;122307;-78
2022/01/01 10:03:58;;;;;;;2.53;1.30;;;4.00;99.90;;;4.78;100.00;98225.13;4964194;28;121588;-78
2022/01/01 10:06:29;;;;;;;2.25;1.20;;;4.10;99.90;;;4.84;100.00;98234.66;4963905;28;129688;-78
2022/01/01 10:09:00;;;;;;;1.70;1.30;;;4.10;99.90;;;4.75;100.00;98225.72;4949420;28;129504;-79
2022/01/01 10:11:30;;;;;;;1.73;1.27;;;4.10;99.90;;;4.72;100.00;98232.53;4946419;28;119081;-78
2022/01/01 10:13:59;;;;;;;1.38;1.00;;;4.10;99.90;;;4.72;100.00;98226.31;4944021;28;119235;-78
2022/01/01 10:16:27;;;;;;;1.27;0.90;;;4.10;99.90;;;4.88;100.00;98230.25;4944361;28;129680;-78
2022/01/01 10:18:57;;;;;;;1.10;0.98;;;4.20;99.90;;;4.88;100.00;98224.88;4962465;28;129392;-77
2022/01/01 10:21:28;;;;;;;3.72;1.33;;;4.20;99.90;;;4.70;100.00;98250.81;4944036;28;119464;-80
2022/01/01 10:23:58;;;;;;;1.40;0.85;;;4.10;99.90;;;4.75;100.00;98247.22;4944372;28;119837;-79
2022/01/01 10:29:17;;;;;;;2.05;1.15;;;4.10;99.90;;;4.46;100.00;98237.66;4943143;28;129593;-79
2022/01/01 10:31:59;;;;;;;2.42;1.30;;;4.10;99.90;;;4.49;100.00;98234.38;4943097;28;119297;-80